sensor_id;sensor_type;location;lat;lon;timestamp;P1;durP1;ratioP1;P2;durP2;ratioP2
14592;SDS011;7383;52.354;9.756;2023-11-19T00:02:19;0.60;;;0.60;;
14592;SDS011;7383;52.354;9.756;2023-11-19T00:04:48;0.50;;;0.50;;
14592;SDS011;7383;52.354;9.756;2023-11-19T00:07:14;0.75;;;0.75;;
14592;SDS011;7383;52.354;9.756;2023-11-19T00:09:41;0.77;;;0.77;;
14592;SDS011;7383;52.354;9.756;2023-11-19T00:12:08;0.60;;;0.55;;
14592;SDS011;7383;52.354;9.756;2023-11-19T00:14:35;0.73;;;0.73;;
14592;SDS011;7383;52.354;9.756;2023-11-19T00:17:04;0.90;;;0.90;;
14592;SDS011;7383;52.354;9.756;2023-11-19T00:19:31;0.80;;;0.80;;
14592;SDS011;7383;52.354;9.756;2023-11-19T00:21:59;0.73;;;0.73;;
14592;SDS011;7383;52.354;9.756;2023-11-19T00:24:28;0.77;;;0.77;;
14592;SDS011;7383;52.354;9.756;2023-11-19T00:26:56;0.80;;;0.80;;
14592;SDS011;7383;52.354;9.756;2023-11-19T00:29:23;1.02;;;0.90;;
14592;SDS011;7383;52.354;9.756;2023-11-19T00:31:50;0.93;;;0.93;;
14592;SDS011;7383;52.354;9.756;2023-11-19T00:34:17;0.73;;;0.70;;
14592;SDS011;7383;52.354;9.756;2023-11-19T00:36:46;0.80;;;0.80;;
14592;SDS011;7383;52.354;9.756;2023-11-19T00:39:15;0.80;;;0.80;;
14592;SDS011;7383;52.354;9.756;2023-11-19T00:41:43;0.50;;;0.50;;
14592;SDS011;7383;52.354;9.756;2023-11-19T00:44:11;0.60;;;0.60;;
14592;SDS011;7383;52.354;9.756;2023-11-19T00:46:38;0.70;;;0.70;;
14592;SDS011;7383;52.354;9.756;2023-11-19T00:49:05;0.73;;;0.73;;
14592;SDS011;7383;52.354;9.756;2023-11-19T00:51:32;0.77;;;0.77;;
14592;SDS011;7383;52.354;9.756;2023-11-19T00:53:59;0.70;;;0.70;;
14592;SDS011;7383;52.354;9.756;2023-11-19T00:56:27;0.63;;;0.60;;
14592;SDS011;7383;52.354;9.756;2023-11-19T00:58:54;0.77;;;0.65;;
14592;SDS011;7383;52.354;9.756;2023-11-19T01:01:21;0.57;;;0.57;;
14592;SDS011;7383;52.354;9.756;2023-11-19T01:03:47;0.60;;;0.60;;
14592;SDS011;7383;52.354;9.756;2023-11-19T01:06:14;0.73;;;0.73;;
14592;SDS011;7383;52.354;9.756;2023-11-19T01:08:42;0.70;;;0.70;;
14592;SDS011;7383;52.354;9.756;2023-11-19T01:11:08;0.90;;;0.90;;
14592;SDS011;7383;52.354;9.756;2023-11-19T01:13:36;0.90;;;0.90;;
14592;SDS011;7383;52.354;9.756;2023-11-19T01:16:03;0.82;;;0.82;;
14592;SDS011;7383;52.354;9.756;2023-11-19T01:18:31;0.77;;;0.77;;
14592;SDS011;7383;52.354;9.756;2023-11-19T01:20:58;0.60;;;0.60;;
14592;SDS011;7383;52.354;9.756;2023-11-19T01:23:25;0.45;;;0.45;;
14592;SDS011;7383;52.354;9.756;2023-11-19T01:25:53;0.63;;;0.63;;
14592;SDS011;7383;52.354;9.756;2023-11-19T01:28:20;0.50;;;0.50;;
14592;SDS011;7383;52.354;9.756;2023-11-19T01:30:47;0.50;;;0.50;;
14592;SDS011;7383;52.354;9.756;2023-11-19T01:33:16;0.50;;;0.50;;
14592;SDS011;7383;52.354;9.756;2023-11-19T01:35:43;0.70;;;0.70;;
14592;SDS011;7383;52.354;9.756;2023-11-19T01:38:10;0.47;;;0.47;;
14592;SDS011;7383;52.354;9.756;2023-11-19T01:40:37;0.50;;;0.50;;
14592;SDS011;7383;52.354;9.756;2023-11-19T01:43:03;0.50;;;0.50;;
14592;SDS011;7383;52.354;9.756;2023-11-19T01:45:30;0.50;;;0.50;;
14592;SDS011;7383;52.354;9.756;2023-11-19T01:47:59;0.50;;;0.43;;
14592;SDS011;7383;52.354;9.756;2023-11-19T01:50:28;0.60;;;0.60;;
14592;SDS011;7383;52.354;9.756;2023-11-19T01:52:56;0.65;;;0.65;;
14592;SDS011;7383;52.354;9.756;2023-11-19T01:55:26;0.40;;;0.40;;
14592;SDS011;7383;52.354;9.756;2023-11-19T01:57:55;0.60;;;0.60;;
14592;SDS011;7383;52.354;9.756;2023-11-19T02:00:26;0.50;;;0.50;;
14592;SDS011;7383;52.354;9.756;2023-11-19T02:02:53;0.57;;;0.57;;
14592;SDS011;7383;52.354;9.756;2023-11-19T02:05:22;0.45;;;0.45;;
14592;SDS011;7383;52.354;9.756;2023-11-19T02:07:49;0.50;;;0.50;;
14592;SDS011;7383;52.354;9.756;2023-11-19T02:10:16;0.40;;;0.40;;
14592;SDS011;7383;52.354;9.756;2023-11-19T02:12:44;0.50;;;0.50;;
14592;SDS011;7383;52.354;9.756;2023-11-19T02:15:11;0.50;;;0.50;;
14592;SDS011;7383;52.354;9.756;2023-11-19T02:17:38;0.65;;;0.25;;
14592;SDS011;7383;52.354;9.756;2023-11-19T02:20:06;0.30;;;0.30;;
14592;SDS011;7383;52.354;9.756;2023-11-19T02:22:35;0.40;;;0.40;;
14592;SDS011;7383;52.354;9.756;2023-11-19T02:25:04;0.35;;;0.30;;
14592;SDS011;7383;52.354;9.756;2023-11-19T02:30:25;0.30;;;0.30;;
14592;SDS011;7383;52.354;9.756;2023-11-19T02:32:53;0.30;;;0.30;;
14592;SDS011;7383;52.354;9.756;2023-11-19T02:35:22;0.45;;;0.45;;
14592;SDS011;7383;52.354;9.756;2023-11-19T02:37:48;0.20;;;0.20;;
14592;SDS011;7383;52.354;9.756;2023-11-19T02:40:15;0.20;;;0.20;;
14592;SDS011;7383;52.354;9.756;2023-11-19T02:42:42;0.30;;;0.30;;
14592;SDS011;7383;52.354;9.756;2023-11-19T02:45:10;0.55;;;0.13;;
14592;SDS011;7383;52.354;9.756;2023-11-19T02:47:39;0.17;;;0.17;;
14592;SDS011;7383;52.354;9.756;2023-11-19T02:50:07;1.17;;;0.60;;
14592;SDS011;7383;52.354;9.756;2023-11-19T02:52:39;0.30;;;0.30;;
14592;SDS011;7383;52.354;9.756;2023-11-19T02:55:06;0.28;;;0.28;;
14592;SDS011;7383;52.354;9.756;2023-11-19T02:57:34;0.22;;;0.22;;
14592;SDS011;7383;52.354;9.756;2023-11-19T03:00:02;0.20;;;0.20;;
14592;SDS011;7383;52.354;9.756;2023-11-19T03:02:39;0.30;;;0.30;;
14592;SDS011;7383;52.354;9.756;2023-11-19T03:05:10;0.75;;;0.30;;
14592;SDS011;7383;52.354;9.756;2023-11-19T03:07:39;0.15;;;0.15;;
14592;SDS011;7383;52.354;9.756;2023-11-19T03:10:07;0.20;;;0.20;;
14592;SDS011;7383;52.354;9.756;2023-11-19T03:12:37;0.20;;;0.20;;
14592;SDS011;7383;52.354;9.756;2023-11-19T03:15:04;0.30;;;0.30;;
14592;SDS011;7383;52.354;9.756;2023-11-19T03:17:31;0.63;;;0.30;;
14592;SDS011;7383;52.354;9.756;2023-11-19T03:20:00;0.47;;;0.47;;
14592;SDS011;7383;52.354;9.756;2023-11-19T03:22:27;0.50;;;0.50;;
14592;SDS011;7383;52.354;9.756;2023-11-19T03:24:53;0.30;;;0.30;;
14592;SDS011;7383;52.354;9.756;2023-11-19T03:27:20;0.30;;;0.30;;
14592;SDS011;7383;52.354;9.756;2023-11-19T03:29:46;0.40;;;0.40;;
14592;SDS011;7383;52.354;9.756;2023-11-19T03:32:13;0.35;;;0.35;;
14592;SDS011;7383;52.354;9.756;2023-11-19T03:34:40;0.40;;;0.40;;
14592;SDS011;7383;52.354;9.756;2023-11-19T03:37:08;0.50;;;0.50;;
14592;SDS011;7383;52.354;9.756;2023-11-19T03:39:34;0.40;;;0.40;;
14592;SDS011;7383;52.354;9.756;2023-11-19T03:42:01;0.50;;;0.50;;
14592;SDS011;7383;52.354;9.756;2023-11-19T03:44:29;0.50;;;0.50;;
14592;SDS011;7383;52.354;9.756;2023-11-19T03:46:55;0.60;;;0.60;;
14592;SDS011;7383;52.354;9.756;2023-11-19T03:49:22;0.38;;;0.38;;
14592;SDS011;7383;52.354;9.756;2023-11-19T03:51:50;0.45;;;0.45;;
14592;SDS011;7383;52.354;9.756;2023-11-19T03:54:18;0.52;;;0.52;;
14592;SDS011;7383;52.354;9.756;2023-11-19T03:56:45;0.40;;;0.40;;
14592;SDS011;7383;52.354;9.756;2023-11-19T03:59:11;0.45;;;0.45;;
14592;SDS011;7383;52.354;9.756;2023-11-19T04:01:38;0.73;;;0.60;;
14592;SDS011;7383;52.354;9.756;2023-11-19T04:04:05;0.40;;;0.40;;
14592;SDS011;7383;52.354;9.756;2023-11-19T04:06:31;0.60;;;0.60;;
14592;SDS011;7383;52.354;9.756;2023-11-19T04:08:58;0.60;;;0.60;;
14592;SDS011;7383;52.354;9.756;2023-11-19T04:11:26;0.50;;;0.50;;
14592;SDS011;7383;52.354;9.756;2023-11-19T04:13:53;0.50;;;0.50;;
14592;SDS011;7383;52.354;9.756;2023-11-19T04:16:19;0.73;;;0.73;;
14592;SDS011;7383;52.354;9.756;2023-11-19T04:18:53;0.90;;;0.70;;
14592;SDS011;7383;52.354;9.756;2023-11-19T04:21:19;0.50;;;0.47;;
14592;SDS011;7383;52.354;9.756;2023-11-19T04:23:46;0.73;;;0.73;;
14592;SDS011;7383;52.354;9.756;2023-11-19T04:26:13;0.93;;;0.88;;
14592;SDS011;7383;52.354;9.756;2023-11-19T04:28:42;0.98;;;0.98;;
14592;SDS011;7383;52.354;9.756;2023-11-19T04:31:08;1.40;;;1.30;;
14592;SDS011;7383;52.354;9.756;2023-11-19T04:33:35;1.45;;;1.38;;
14592;SDS011;7383;52.354;9.756;2023-11-19T04:36:01;1.35;;;1.25;;
14592;SDS011;7383;52.354;9.756;2023-11-19T04:38:28;1.38;;;1.27;;
14592;SDS011;7383;52.354;9.756;2023-11-19T04:40:55;1.30;;;1.20;;
14592;SDS011;7383;52.354;9.756;2023-11-19T04:43:22;1.50;;;1.50;;
14592;SDS011;7383;52.354;9.756;2023-11-19T04:45:50;1.80;;;1.70;;
14592;SDS011;7383;52.354;9.756;2023-11-19T04:48:16;1.80;;;1.70;;
14592;SDS011;7383;52.354;9.756;2023-11-19T04:50:43;1.83;;;1.73;;
14592;SDS011;7383;52.354;9.756;2023-11-19T04:53:09;1.80;;;1.65;;
14592;SDS011;7383;52.354;9.756;2023-11-19T04:55:36;2.10;;;2.00;;
14592;SDS011;7383;52.354;9.756;2023-11-19T04:58:02;1.92;;;1.83;;
14592;SDS011;7383;52.354;9.756;2023-11-19T05:00:29;2.22;;;2.10;;
14592;SDS011;7383;52.354;9.756;2023-11-19T05:02:57;2.40;;;2.20;;
14592;SDS011;7383;52.354;9.756;2023-11-19T05:05:23;2.60;;;2.40;;
14592;SDS011;7383;52.354;9.756;2023-11-19T05:07:50;2.35;;;2.15;;
14592;SDS011;7383;52.354;9.756;2023-11-19T05:10:16;2.72;;;2.53;;
14592;SDS011;7383;52.354;9.756;2023-11-19T05:12:43;2.60;;;2.40;;
14592;SDS011;7383;52.354;9.756;2023-11-19T05:15:09;2.95;;;2.75;;
14592;SDS011;7383;52.354;9.756;2023-11-19T05:17:37;2.95;;;2.75;;
14592;SDS011;7383;52.354;9.756;2023-11-19T05:20:06;3.03;;;2.55;;
14592;SDS011;7383;52.354;9.756;2023-11-19T05:22:38;3.15;;;2.90;;
14592;SDS011;7383;52.354;9.756;2023-11-19T05:25:05;2.78;;;2.58;;
14592;SDS011;7383;52.354;9.756;2023-11-19T05:27:33;2.40;;;2.30;;
14592;SDS011;7383;52.354;9.756;2023-11-19T05:30:00;2.85;;;2.58;;
14592;SDS011;7383;52.354;9.756;2023-11-19T05:32:26;2.45;;;2.25;;
14592;SDS011;7383;52.354;9.756;2023-11-19T05:34:53;2.42;;;2.28;;
14592;SDS011;7383;52.354;9.756;2023-11-19T05:37:21;2.67;;;2.47;;
14592;SDS011;7383;52.354;9.756;2023-11-19T05:39:47;2.90;;;2.70;;
14592;SDS011;7383;52.354;9.756;2023-11-19T05:42:14;2.95;;;2.75;;
14592;SDS011;7383;52.354;9.756;2023-11-19T05:44:41;2.67;;;2.50;;
14592;SDS011;7383;52.354;9.756;2023-11-19T05:47:07;2.80;;;2.60;;
14592;SDS011;7383;52.354;9.756;2023-11-19T05:49:34;2.92;;;2.72;;
14592;SDS011;7383;52.354;9.756;2023-11-19T05:52:00;3.88;;;2.97;;
14592;SDS011;7383;52.354;9.756;2023-11-19T05:54:29;3.17;;;2.90;;
14592;SDS011;7383;52.354;9.756;2023-11-19T05:56:58;3.15;;;2.88;;
14592;SDS011;7383;52.354;9.756;2023-11-19T05:59:25;3.50;;;3.20;;
14592;SDS011;7383;52.354;9.756;2023-11-19T06:01:51;4.15;;;3.72;;
14592;SDS011;7383;52.354;9.756;2023-11-19T06:04:18;3.50;;;3.20;;
14592;SDS011;7383;52.354;9.756;2023-11-19T06:06:45;3.33;;;3.13;;
14592;SDS011;7383;52.354;9.756;2023-11-19T06:09:11;3.60;;;3.30;;
14592;SDS011;7383;52.354;9.756;2023-11-19T06:11:39;5.55;;;4.40;;
14592;SDS011;7383;52.354;9.756;2023-11-19T06:14:06;4.20;;;3.85;;
14592;SDS011;7383;52.354;9.756;2023-11-19T06:16:33;5.00;;;3.80;;
14592;SDS011;7383;52.354;9.756;2023-11-19T06:18:59;4.20;;;3.78;;
14592;SDS011;7383;52.354;9.756;2023-11-19T06:21:26;3.90;;;3.60;;
14592;SDS011;7383;52.354;9.756;2023-11-19T06:23:52;4.00;;;3.70;;
14592;SDS011;7383;52.354;9.756;2023-11-19T06:26:19;4.90;;;4.22;;
14592;SDS011;7383;52.354;9.756;2023-11-19T06:28:48;5.88;;;3.60;;
14592;SDS011;7383;52.354;9.756;2023-11-19T06:31:15;4.50;;;4.15;;
14592;SDS011;7383;52.354;9.756;2023-11-19T06:33:42;4.07;;;3.72;;
14592;SDS011;7383;52.354;9.756;2023-11-19T06:36:08;5.88;;;3.92;;
14592;SDS011;7383;52.354;9.756;2023-11-19T06:38:35;4.82;;;4.07;;
14592;SDS011;7383;52.354;9.756;2023-11-19T06:41:02;5.90;;;3.67;;
14592;SDS011;7383;52.354;9.756;2023-11-19T06:43:33;4.18;;;3.42;;
14592;SDS011;7383;52.354;9.756;2023-11-19T06:46:01;6.32;;;3.85;;
14592;SDS011;7383;52.354;9.756;2023-11-19T06:48:32;3.30;;;3.00;;
14592;SDS011;7383;52.354;9.756;2023-11-19T06:50:59;3.92;;;3.60;;
14592;SDS011;7383;52.354;9.756;2023-11-19T06:53:25;6.68;;;3.65;;
14592;SDS011;7383;52.354;9.756;2023-11-19T06:55:53;5.65;;;3.40;;
14592;SDS011;7383;52.354;9.756;2023-11-19T06:58:19;7.82;;;3.50;;
14592;SDS011;7383;52.354;9.756;2023-11-19T07:00:45;5.07;;;3.00;;
14592;SDS011;7383;52.354;9.756;2023-11-19T07:03:15;7.15;;;3.22;;
14592;SDS011;7383;52.354;9.756;2023-11-19T07:05:43;3.13;;;2.83;;
14592;SDS011;7383;52.354;9.756;2023-11-19T07:08:10;5.38;;;3.47;;
14592;SDS011;7383;52.354;9.756;2023-11-19T07:10:37;5.35;;;3.40;;
14592;SDS011;7383;52.354;9.756;2023-11-19T07:13:03;5.70;;;3.25;;
14592;SDS011;7383;52.354;9.756;2023-11-19T07:15:31;5.60;;;2.67;;
14592;SDS011;7383;52.354;9.756;2023-11-19T07:18:00;4.80;;;3.17;;
14592;SDS011;7383;52.354;9.756;2023-11-19T07:20:27;5.78;;;3.00;;
14592;SDS011;7383;52.354;9.756;2023-11-19T07:22:54;9.13;;;3.42;;
14592;SDS011;7383;52.354;9.756;2023-11-19T07:25:21;5.65;;;2.83;;
14592;SDS011;7383;52.354;9.756;2023-11-19T07:27:48;4.78;;;2.90;;
14592;SDS011;7383;52.354;9.756;2023-11-19T07:30:15;7.00;;;2.70;;
14592;SDS011;7383;52.354;9.756;2023-11-19T07:32:41;4.95;;;2.47;;
14592;SDS011;7383;52.354;9.756;2023-11-19T07:35:08;8.60;;;3.20;;
14592;SDS011;7383;52.354;9.756;2023-11-19T07:37:36;8.98;;;3.25;;
14592;SDS011;7383;52.354;9.756;2023-11-19T07:40:02;5.32;;;2.63;;
14592;SDS011;7383;52.354;9.756;2023-11-19T07:42:29;5.50;;;2.80;;
14592;SDS011;7383;52.354;9.756;2023-11-19T07:44:56;5.85;;;2.55;;
14592;SDS011;7383;52.354;9.756;2023-11-19T07:47:22;9.02;;;2.72;;
14592;SDS011;7383;52.354;9.756;2023-11-19T07:49:49;8.40;;;3.22;;
14592;SDS011;7383;52.354;9.756;2023-11-19T07:52:16;6.72;;;3.10;;
14592;SDS011;7383;52.354;9.756;2023-11-19T07:54:44;6.50;;;2.80;;
14592;SDS011;7383;52.354;9.756;2023-11-19T07:57:11;8.70;;;3.13;;
14592;SDS011;7383;52.354;9.756;2023-11-19T07:59:37;9.32;;;3.15;;
14592;SDS011;7383;52.354;9.756;2023-11-19T08:02:04;7.13;;;3.38;;
14592;SDS011;7383;52.354;9.756;2023-11-19T08:04:31;7.35;;;3.13;;
14592;SDS011;7383;52.354;9.756;2023-11-19T08:06:58;6.38;;;2.92;;
14592;SDS011;7383;52.354;9.756;2023-11-19T08:09:25;7.18;;;3.13;;
14592;SDS011;7383;52.354;9.756;2023-11-19T08:11:53;5.47;;;3.20;;
14592;SDS011;7383;52.354;9.756;2023-11-19T08:14:21;8.05;;;3.00;;
14592;SDS011;7383;52.354;9.756;2023-11-19T08:16:48;8.55;;;3.17;;
14592;SDS011;7383;52.354;9.756;2023-11-19T08:19:14;6.13;;;3.13;;
14592;SDS011;7383;52.354;9.756;2023-11-19T08:21:41;7.45;;;3.33;;
14592;SDS011;7383;52.354;9.756;2023-11-19T08:24:08;9.05;;;3.88;;
14592;SDS011;7383;52.354;9.756;2023-11-19T08:26:34;8.38;;;3.40;;
14592;SDS011;7383;52.354;9.756;2023-11-19T08:29:02;9.48;;;3.65;;
14592;SDS011;7383;52.354;9.756;2023-11-19T08:31:29;9.10;;;3.20;;
14592;SDS011;7383;52.354;9.756;2023-11-19T08:33:55;12.27;;;3.58;;
14592;SDS011;7383;52.354;9.756;2023-11-19T08:36:22;9.93;;;3.40;;
14592;SDS011;7383;52.354;9.756;2023-11-19T08:38:49;7.95;;;3.15;;
14592;SDS011;7383;52.354;9.756;2023-11-19T08:41:16;12.55;;;3.50;;
14592;SDS011;7383;52.354;9.756;2023-11-19T08:43:44;7.20;;;3.03;;
14592;SDS011;7383;52.354;9.756;2023-11-19T08:46:12;8.55;;;3.40;;
14592;SDS011;7383;52.354;9.756;2023-11-19T08:48:38;7.72;;;2.90;;
14592;SDS011;7383;52.354;9.756;2023-11-19T08:51:05;10.60;;;3.67;;
14592;SDS011;7383;52.354;9.756;2023-11-19T08:53:32;7.05;;;3.00;;
14592;SDS011;7383;52.354;9.756;2023-11-19T08:55:59;9.85;;;4.00;;
14592;SDS011;7383;52.354;9.756;2023-11-19T08:58:25;9.38;;;3.50;;
14592;SDS011;7383;52.354;9.756;2023-11-19T09:00:52;9.38;;;3.22;;
14592;SDS011;7383;52.354;9.756;2023-11-19T09:03:20;10.35;;;3.45;;
14592;SDS011;7383;52.354;9.756;2023-11-19T09:05:46;5.55;;;3.63;;
14592;SDS011;7383;52.354;9.756;2023-11-19T09:08:13;10.68;;;3.60;;
14592;SDS011;7383;52.354;9.756;2023-11-19T09:10:39;7.68;;;3.35;;
14592;SDS011;7383;52.354;9.756;2023-11-19T09:13:06;9.77;;;3.53;;
14592;SDS011;7383;52.354;9.756;2023-11-19T09:15:32;6.95;;;3.30;;
14592;SDS011;7383;52.354;9.756;2023-11-19T09:17:59;7.78;;;3.60;;
14592;SDS011;7383;52.354;9.756;2023-11-19T09:20:27;9.48;;;3.70;;
14592;SDS011;7383;52.354;9.756;2023-11-19T09:22:57;8.70;;;3.40;;
14592;SDS011;7383;52.354;9.756;2023-11-19T09:25:24;9.30;;;3.83;;
14592;SDS011;7383;52.354;9.756;2023-11-19T09:27:50;7.13;;;3.17;;
14592;SDS011;7383;52.354;9.756;2023-11-19T09:30:17;7.75;;;3.30;;
14592;SDS011;7383;52.354;9.756;2023-11-19T09:32:43;7.03;;;3.50;;
14592;SDS011;7383;52.354;9.756;2023-11-19T09:35:10;9.68;;;3.35;;
14592;SDS011;7383;52.354;9.756;2023-11-19T09:37:39;7.97;;;3.53;;
14592;SDS011;7383;52.354;9.756;2023-11-19T09:40:07;8.43;;;3.22;;
14592;SDS011;7383;52.354;9.756;2023-11-19T09:42:36;11.30;;;4.38;;
14592;SDS011;7383;52.354;9.756;2023-11-19T09:45:10;8.73;;;3.33;;
14592;SDS011;7383;52.354;9.756;2023-11-19T09:47:39;10.85;;;3.65;;
14592;SDS011;7383;52.354;9.756;2023-11-19T09:50:07;9.40;;;3.50;;
14592;SDS011;7383;52.354;9.756;2023-11-19T09:52:34;8.70;;;3.55;;
14592;SDS011;7383;52.354;9.756;2023-11-19T09:55:02;11.75;;;3.45;;
14592;SDS011;7383;52.354;9.756;2023-11-19T09:57:29;10.32;;;3.70;;
14592;SDS011;7383;52.354;9.756;2023-11-19T09:59:58;10.80;;;3.88;;
14592;SDS011;7383;52.354;9.756;2023-11-19T10:02:27;9.93;;;3.22;;
14592;SDS011;7383;52.354;9.756;2023-11-19T10:04:57;7.18;;;3.60;;
14592;SDS011;7383;52.354;9.756;2023-11-19T10:07:25;8.85;;;3.45;;
14592;SDS011;7383;52.354;9.756;2023-11-19T10:09:52;9.00;;;4.05;;
14592;SDS011;7383;52.354;9.756;2023-11-19T10:12:20;7.43;;;3.05;;
14592;SDS011;7383;52.354;9.756;2023-11-19T10:14:47;5.85;;;2.50;;
14592;SDS011;7383;52.354;9.756;2023-11-19T10:17:16;9.07;;;3.30;;
14592;SDS011;7383;52.354;9.756;2023-11-19T10:19:42;11.90;;;3.88;;
14592;SDS011;7383;52.354;9.756;2023-11-19T10:22:09;6.22;;;2.83;;
14592;SDS011;7383;52.354;9.756;2023-11-19T10:24:37;7.32;;;2.80;;
14592;SDS011;7383;52.354;9.756;2023-11-19T10:27:07;9.07;;;3.00;;
14592;SDS011;7383;52.354;9.756;2023-11-19T10:29:37;10.77;;;3.50;;
14592;SDS011;7383;52.354;9.756;2023-11-19T10:32:04;8.10;;;3.58;;
14592;SDS011;7383;52.354;9.756;2023-11-19T10:34:30;11.55;;;3.63;;
14592;SDS011;7383;52.354;9.756;2023-11-19T10:36:57;5.25;;;2.90;;
14592;SDS011;7383;52.354;9.756;2023-11-19T10:39:23;11.98;;;3.88;;
14592;SDS011;7383;52.354;9.756;2023-11-19T10:42:03;7.03;;;2.92;;
14592;SDS011;7383;52.354;9.756;2023-11-19T10:44:42;8.13;;;2.78;;
14592;SDS011;7383;52.354;9.756;2023-11-19T10:47:09;9.63;;;2.70;;
14592;SDS011;7383;52.354;9.756;2023-11-19T10:49:38;7.43;;;3.03;;
14592;SDS011;7383;52.354;9.756;2023-11-19T10:52:05;7.05;;;2.88;;
14592;SDS011;7383;52.354;9.756;2023-11-19T10:54:34;4.80;;;2.78;;
14592;SDS011;7383;52.354;9.756;2023-11-19T10:57:01;6.80;;;2.75;;
14592;SDS011;7383;52.354;9.756;2023-11-19T10:59:30;8.55;;;2.80;;
14592;SDS011;7383;52.354;9.756;2023-11-19T11:01:59;8.98;;;3.30;;
14592;SDS011;7383;52.354;9.756;2023-11-19T11:04:30;9.70;;;3.40;;
14592;SDS011;7383;52.354;9.756;2023-11-19T11:07:06;9.13;;;3.15;;
14592;SDS011;7383;52.354;9.756;2023-11-19T11:09:35;5.88;;;3.15;;
14592;SDS011;7383;52.354;9.756;2023-11-19T11:12:01;7.07;;;3.10;;
14592;SDS011;7383;52.354;9.756;2023-11-19T11:14:32;8.27;;;3.30;;
14592;SDS011;7383;52.354;9.756;2023-11-19T11:17:04;9.30;;;3.15;;
14592;SDS011;7383;52.354;9.756;2023-11-19T11:19:32;8.40;;;3.55;;
14592;SDS011;7383;52.354;9.756;2023-11-19T11:21:59;8.80;;;3.50;;
14592;SDS011;7383;52.354;9.756;2023-11-19T11:24:43;9.65;;;3.25;;
14592;SDS011;7383;52.354;9.756;2023-11-19T11:27:38;9.10;;;3.40;;
14592;SDS011;7383;52.354;9.756;2023-11-19T11:30:17;7.15;;;3.25;;
14592;SDS011;7383;52.354;9.756;2023-11-19T11:32:58;6.57;;;3.10;;
14592;SDS011;7383;52.354;9.756;2023-11-19T11:35:35;6.38;;;3.13;;
14592;SDS011;7383;52.354;9.756;2023-11-19T11:38:13;7.03;;;3.20;;
14592;SDS011;7383;52.354;9.756;2023-11-19T11:40:41;7.03;;;2.70;;
14592;SDS011;7383;52.354;9.756;2023-11-19T11:46:07;10.40;;;3.35;;
14592;SDS011;7383;52.354;9.756;2023-11-19T11:48:35;7.80;;;3.35;;
14592;SDS011;7383;52.354;9.756;2023-11-19T11:51:11;9.50;;;3.25;;
14592;SDS011;7383;52.354;9.756;2023-11-19T11:53:37;5.60;;;2.78;;
14592;SDS011;7383;52.354;9.756;2023-11-19T11:56:04;6.82;;;2.80;;
14592;SDS011;7383;52.354;9.756;2023-11-19T11:58:34;9.73;;;3.42;;
14592;SDS011;7383;52.354;9.756;2023-11-19T12:01:03;8.32;;;3.33;;
14592;SDS011;7383;52.354;9.756;2023-11-19T12:03:32;7.22;;;2.92;;
14592;SDS011;7383;52.354;9.756;2023-11-19T12:06:00;9.05;;;3.78;;
14592;SDS011;7383;52.354;9.756;2023-11-19T12:08:28;6.32;;;2.92;;
14592;SDS011;7383;52.354;9.756;2023-11-19T12:10:56;6.55;;;2.67;;
14592;SDS011;7383;52.354;9.756;2023-11-19T12:16:19;6.80;;;3.00;;
14592;SDS011;7383;52.354;9.756;2023-11-19T12:18:46;8.90;;;2.97;;
14592;SDS011;7383;52.354;9.756;2023-11-19T12:21:28;8.45;;;3.45;;
14592;SDS011;7383;52.354;9.756;2023-11-19T12:23:55;7.95;;;3.47;;
14592;SDS011;7383;52.354;9.756;2023-11-19T12:26:35;8.40;;;3.25;;
14592;SDS011;7383;52.354;9.756;2023-11-19T12:29:03;9.50;;;3.42;;
14592;SDS011;7383;52.354;9.756;2023-11-19T12:31:31;8.02;;;3.15;;
14592;SDS011;7383;52.354;9.756;2023-11-19T12:34:00;8.18;;;3.40;;
14592;SDS011;7383;52.354;9.756;2023-11-19T12:36:32;9.18;;;3.40;;
14592;SDS011;7383;52.354;9.756;2023-11-19T12:38:59;7.97;;;3.00;;
14592;SDS011;7383;52.354;9.756;2023-11-19T12:41:26;6.18;;;3.58;;
14592;SDS011;7383;52.354;9.756;2023-11-19T12:43:53;8.93;;;3.30;;
14592;SDS011;7383;52.354;9.756;2023-11-19T12:46:20;9.07;;;3.42;;
14592;SDS011;7383;52.354;9.756;2023-11-19T12:48:48;8.85;;;3.38;;
14592;SDS011;7383;52.354;9.756;2023-11-19T12:51:15;7.47;;;3.13;;
14592;SDS011;7383;52.354;9.756;2023-11-19T12:53:52;6.78;;;3.05;;
14592;SDS011;7383;52.354;9.756;2023-11-19T12:56:19;8.02;;;3.13;;
14592;SDS011;7383;52.354;9.756;2023-11-19T12:58:48;8.60;;;3.08;;
14592;SDS011;7383;52.354;9.756;2023-11-19T13:01:15;8.10;;;3.15;;
14592;SDS011;7383;52.354;9.756;2023-11-19T13:03:44;7.10;;;2.83;;
14592;SDS011;7383;52.354;9.756;2023-11-19T13:06:12;7.88;;;3.13;;
14592;SDS011;7383;52.354;9.756;2023-11-19T13:08:41;5.82;;;2.85;;
14592;SDS011;7383;52.354;9.756;2023-11-19T13:11:10;7.97;;;2.97;;
14592;SDS011;7383;52.354;9.756;2023-11-19T13:13:54;7.47;;;3.13;;
14592;SDS011;7383;52.354;9.756;2023-11-19T13:16:21;6.35;;;2.80;;
14592;SDS011;7383;52.354;9.756;2023-11-19T13:18:48;6.22;;;3.00;;
14592;SDS011;7383;52.354;9.756;2023-11-19T13:21:15;7.50;;;2.88;;
14592;SDS011;7383;52.354;9.756;2023-11-19T13:23:41;6.38;;;3.47;;
14592;SDS011;7383;52.354;9.756;2023-11-19T13:26:08;7.22;;;2.83;;
14592;SDS011;7383;52.354;9.756;2023-11-19T13:28:36;8.25;;;3.05;;
14592;SDS011;7383;52.354;9.756;2023-11-19T13:31:03;6.22;;;3.00;;
14592;SDS011;7383;52.354;9.756;2023-11-19T13:33:30;6.97;;;3.00;;
14592;SDS011;7383;52.354;9.756;2023-11-19T13:35:56;8.45;;;3.25;;
14592;SDS011;7383;52.354;9.756;2023-11-19T13:38:24;8.10;;;3.15;;
14592;SDS011;7383;52.354;9.756;2023-11-19T13:40:51;6.88;;;2.95;;
14592;SDS011;7383;52.354;9.756;2023-11-19T13:43:18;7.43;;;3.15;;
14592;SDS011;7383;52.354;9.756;2023-11-19T13:45:46;7.05;;;3.13;;
14592;SDS011;7383;52.354;9.756;2023-11-19T13:48:13;7.53;;;3.30;;
14592;SDS011;7383;52.354;9.756;2023-11-19T13:50:39;9.15;;;3.25;;
14592;SDS011;7383;52.354;9.756;2023-11-19T13:53:07;7.05;;;3.15;;
14592;SDS011;7383;52.354;9.756;2023-11-19T13:55:33;7.47;;;3.08;;
14592;SDS011;7383;52.354;9.756;2023-11-19T13:58:00;7.53;;;3.22;;
14592;SDS011;7383;52.354;9.756;2023-11-19T14:00:27;5.45;;;2.90;;
14592;SDS011;7383;52.354;9.756;2023-11-19T14:02:55;8.55;;;2.97;;
14592;SDS011;7383;52.354;9.756;2023-11-19T14:05:21;7.75;;;2.90;;
14592;SDS011;7383;52.354;9.756;2023-11-19T14:07:48;7.95;;;3.05;;
14592;SDS011;7383;52.354;9.756;2023-11-19T14:10:16;6.25;;;3.08;;
14592;SDS011;7383;52.354;9.756;2023-11-19T14:12:43;7.70;;;3.20;;
14592;SDS011;7383;52.354;9.756;2023-11-19T14:15:10;8.65;;;2.90;;
14592;SDS011;7383;52.354;9.756;2023-11-19T14:17:37;6.75;;;3.13;;
14592;SDS011;7383;52.354;9.756;2023-11-19T14:20:06;6.50;;;3.15;;
14592;SDS011;7383;52.354;9.756;2023-11-19T14:22:37;8.50;;;2.97;;
14592;SDS011;7383;52.354;9.756;2023-11-19T14:25:04;7.95;;;3.28;;
14592;SDS011;7383;52.354;9.756;2023-11-19T14:27:31;7.85;;;3.10;;
14592;SDS011;7383;52.354;9.756;2023-11-19T14:29:58;7.07;;;3.17;;
14592;SDS011;7383;52.354;9.756;2023-11-19T14:32:24;7.53;;;3.13;;
14592;SDS011;7383;52.354;9.756;2023-11-19T14:34:51;6.38;;;2.97;;
14592;SDS011;7383;52.354;9.756;2023-11-19T14:37:19;7.63;;;3.28;;
14592;SDS011;7383;52.354;9.756;2023-11-19T14:39:45;8.48;;;3.15;;
14592;SDS011;7383;52.354;9.756;2023-11-19T14:42:12;7.03;;;3.15;;
14592;SDS011;7383;52.354;9.756;2023-11-19T14:44:39;8.20;;;3.40;;
14592;SDS011;7383;52.354;9.756;2023-11-19T14:47:05;9.38;;;3.38;;
14592;SDS011;7383;52.354;9.756;2023-11-19T14:49:34;10.07;;;3.72;;
14592;SDS011;7383;52.354;9.756;2023-11-19T14:52:01;7.45;;;3.00;;
14592;SDS011;7383;52.354;9.756;2023-11-19T14:54:29;5.95;;;2.90;;
14592;SDS011;7383;52.354;9.756;2023-11-19T14:56:56;5.38;;;2.88;;
14592;SDS011;7383;52.354;9.756;2023-11-19T14:59:24;6.72;;;3.05;;
14592;SDS011;7383;52.354;9.756;2023-11-19T15:01:50;7.63;;;2.97;;
14592;SDS011;7383;52.354;9.756;2023-11-19T15:04:17;5.82;;;2.92;;
14592;SDS011;7383;52.354;9.756;2023-11-19T15:06:43;6.22;;;2.60;;
14592;SDS011;7383;52.354;9.756;2023-11-19T15:09:10;5.57;;;2.90;;
14592;SDS011;7383;52.354;9.756;2023-11-19T15:11:42;8.48;;;2.92;;
14592;SDS011;7383;52.354;9.756;2023-11-19T15:14:11;7.22;;;3.22;;